sensor_id;sensor_type;location;lat;lon;timestamp;pressure;altitude;pressure_sealevel;temperature;humidity
73267;BME280;61495;53.400;7.608;2024-01-15T00:00:17;99600.09;;;1.08;100.00
73267;BME280;61495;53.400;7.608;2024-01-15T00:02:42;99589.91;;;1.05;100.00
73267;BME280;61495;53.400;7.608;2024-01-15T00:05:07;99582.97;;;1.04;100.00
73267;BME280;61495;53.400;7.608;2024-01-15T00:07:33;99581.00;;;1.06;100.00
73267;BME280;61495;53.400;7.608;2024-01-15T00:09:58;99575.75;;;1.06;100.00
73267;BME280;61495;53.400;7.608;2024-01-15T00:12:23;99580.00;;;1.07;100.00
73267;BME280;61495;53.400;7.608;2024-01-15T00:14:48;99567.16;;;1.04;100.00
73267;BME280;61495;53.400;7.608;2024-01-15T00:17:14;99555.00;;;1.03;100.00
73267;BME280;61495;53.400;7.608;2024-01-15T00:19:39;99553.97;;;1.04;100.00
73267;BME280;61495;53.400;7.608;2024-01-15T00:22:04;99552.16;;;1.04;100.00
73267;BME280;61495;53.400;7.608;2024-01-15T00:24:30;99545.44;;;1.02;100.00
73267;BME280;61495;53.400;7.608;2024-01-15T00:26:55;99548.06;;;1.02;100.00
73267;BME280;61495;53.400;7.608;2024-01-15T00:29:20;99539.53;;;1.00;100.00
73267;BME280;61495;53.400;7.608;2024-01-15T00:31:46;99535.59;;;0.96;100.00
73267;BME280;61495;53.400;7.608;2024-01-15T00:34:11;99539.88;;;0.97;100.00
73267;BME280;61495;53.400;7.608;2024-01-15T00:36:37;99545.97;;;0.97;100.00
73267;BME280;61495;53.400;7.608;2024-01-15T00:39:02;99544.81;;;1.00;100.00
73267;BME280;61495;53.400;7.608;2024-01-15T00:41:30;99538.72;;;0.99;100.00
73267;BME280;61495;53.400;7.608;2024-01-15T00:43:55;99526.97;;;1.02;100.00
73267;BME280;61495;53.400;7.608;2024-01-15T00:46:21;99523.34;;;1.03;100.00
73267;BME280;61495;53.400;7.608;2024-01-15T00:48:46;99515.44;;;1.03;100.00
73267;BME280;61495;53.400;7.608;2024-01-15T00:51:12;99513.63;;;1.03;100.00
73267;BME280;61495;53.400;7.608;2024-01-15T00:53:37;99516.91;;;1.05;100.00
73267;BME280;61495;53.400;7.608;2024-01-15T00:56:03;99515.72;;;1.08;100.00
73267;BME280;61495;53.400;7.608;2024-01-15T00:58:28;99518.72;;;1.05;100.00
73267;BME280;61495;53.400;7.608;2024-01-15T01:00:53;99527.91;;;1.09;100.00
73267;BME280;61495;53.400;7.608;2024-01-15T01:03:19;99521.81;;;1.08;100.00
73267;BME280;61495;53.400;7.608;2024-01-15T01:05:44;99524.63;;;1.07;100.00
73267;BME280;61495;53.400;7.608;2024-01-15T01:08:10;99512.09;;;1.09;100.00
73267;BME280;61495;53.400;7.608;2024-01-15T01:10:35;99510.44;;;1.08;100.00
73267;BME280;61495;53.400;7.608;2024-01-15T01:13:00;99517.38;;;1.09;100.00
73267;BME280;61495;53.400;7.608;2024-01-15T01:15:26;99504.81;;;1.11;100.00
73267;BME280;61495;53.400;7.608;2024-01-15T01:17:52;99507.28;;;1.13;100.00
73267;BME280;61495;53.400;7.608;2024-01-15T01:20:17;99509.75;;;1.14;100.00
73267;BME280;61495;53.400;7.608;2024-01-15T01:22:42;99498.91;;;1.09;100.00
73267;BME280;61495;53.400;7.608;2024-01-15T01:25:08;99506.47;;;1.12;100.00
73267;BME280;61495;53.400;7.608;2024-01-15T01:27:35;99499.03;;;1.16;100.00
73267;BME280;61495;53.400;7.608;2024-01-15T01:30:00;99496.75;;;1.13;100.00
73267;BME280;61495;53.400;7.608;2024-01-15T01:32:26;99502.44;;;1.16;100.00
73267;BME280;61495;53.400;7.608;2024-01-15T01:34:51;99497.38;;;1.15;100.00
73267;BME280;61495;53.400;7.608;2024-01-15T01:37:16;99488.63;;;1.14;100.00
73267;BME280;61495;53.400;7.608;2024-01-15T01:39:42;99489.28;;;1.16;100.00
73267;BME280;61495;53.400;7.608;2024-01-15T01:42:08;99493.09;;;1.13;100.00
73267;BME280;61495;53.400;7.608;2024-01-15T01:44:34;99491.47;;;1.13;100.00
73267;BME280;61495;53.400;7.608;2024-01-15T01:46:59;99485.84;;;1.16;100.00
73267;BME280;61495;53.400;7.608;2024-01-15T01:49:26;99490.44;;;1.13;100.00
73267;BME280;61495;53.400;7.608;2024-01-15T01:51:55;99486.00;;;1.14;100.00
73267;BME280;61495;53.400;7.608;2024-01-15T01:54:22;99492.47;;;1.11;100.00
73267;BME280;61495;53.400;7.608;2024-01-15T01:56:48;99494.28;;;1.11;100.00
73267;BME280;61495;53.400;7.608;2024-01-15T01:59:14;99489.81;;;1.11;100.00
73267;BME280;61495;53.400;7.608;2024-01-15T02:01:40;99486.38;;;1.11;100.00
73267;BME280;61495;53.400;7.608;2024-01-15T02:04:05;99489.00;;;1.11;100.00
73267;BME280;61495;53.400;7.608;2024-01-15T02:06:31;99485.38;;;1.12;100.00
73267;BME280;61495;53.400;7.608;2024-01-15T02:08:56;99501.19;;;1.12;100.00
73267;BME280;61495;53.400;7.608;2024-01-15T02:11:22;99501.19;;;1.12;100.00
73267;BME280;61495;53.400;7.608;2024-01-15T02:13:48;99504.47;;;1.14;100.00
73267;BME280;61495;53.400;7.608;2024-01-15T02:16:13;99515.00;;;1.14;100.00
73267;BME280;61495;53.400;7.608;2024-01-15T02:18:46;99515.00;;;1.14;100.00
73267;BME280;61495;53.400;7.608;2024-01-15T02:21:11;99505.28;;;1.15;100.00
73267;BME280;61495;53.400;7.608;2024-01-15T02:23:38;99501.47;;;1.17;100.00
73267;BME280;61495;53.400;7.608;2024-01-15T02:26:08;99496.38;;;1.16;100.00
73267;BME280;61495;53.400;7.608;2024-01-15T02:28:34;99503.63;;;1.13;100.00
73267;BME280;61495;53.400;7.608;2024-01-15T02:30:59;99497.53;;;1.13;100.00
73267;BME280;61495;53.400;7.608;2024-01-15T02:33:25;99490.66;;;1.12;100.00
73267;BME280;61495;53.400;7.608;2024-01-15T02:35:50;99489.47;;;1.15;100.00
73267;BME280;61495;53.400;7.608;2024-01-15T02:38:16;99491.91;;;1.16;100.00
73267;BME280;61495;53.400;7.608;2024-01-15T02:40:43;99485.38;;;1.12;100.00
73267;BME280;61495;53.400;7.608;2024-01-15T02:43:09;99484.66;;;1.18;100.00
73267;BME280;61495;53.400;7.608;2024-01-15T02:45:35;99473.19;;;1.11;100.00
73267;BME280;61495;53.400;7.608;2024-01-15T02:48:00;99487.91;;;1.20;100.00
73267;BME280;61495;53.400;7.608;2024-01-15T02:50:25;99483.00;;;1.17;100.00
73267;BME280;61495;53.400;7.608;2024-01-15T02:52:51;99485.28;;;1.20;100.00
73267;BME280;61495;53.400;7.608;2024-01-15T02:55:16;99485.91;;;1.22;100.00
73267;BME280;61495;53.400;7.608;2024-01-15T02:57:42;99488.38;;;1.24;100.00
73267;BME280;61495;53.400;7.608;2024-01-15T03:00:07;99477.00;;;1.23;100.00
73267;BME280;61495;53.400;7.608;2024-01-15T03:02:37;99480.28;;;1.25;100.00
73267;BME280;61495;53.400;7.608;2024-01-15T03:05:05;99483.94;;;1.24;100.00
73267;BME280;61495;53.400;7.608;2024-01-15T03:07:31;99483.94;;;1.24;100.00
73267;BME280;61495;53.400;7.608;2024-01-15T03:09:56;99483.09;;;1.24;100.00
73267;BME280;61495;53.400;7.608;2024-01-15T03:12:21;99478.66;;;1.24;100.00
73267;BME280;61495;53.400;7.608;2024-01-15T03:14:47;99482.91;;;1.25;100.00
73267;BME280;61495;53.400;7.608;2024-01-15T03:17:12;99478.66;;;1.24;100.00
73267;BME280;61495;53.400;7.608;2024-01-15T03:19:38;99474.22;;;1.25;100.00
73267;BME280;61495;53.400;7.608;2024-01-15T03:22:03;99479.47;;;1.25;100.00
73267;BME280;61495;53.400;7.608;2024-01-15T03:24:29;99480.28;;;1.25;100.00
73267;BME280;61495;53.400;7.608;2024-01-15T03:26:55;99482.75;;;1.27;100.00
73267;BME280;61495;53.400;7.608;2024-01-15T03:29:20;99500.38;;;1.26;100.00
73267;BME280;61495;53.400;7.608;2024-01-15T03:31:46;99504.69;;;1.27;100.00
73267;BME280;61495;53.400;7.608;2024-01-15T03:34:11;99525.41;;;1.30;100.00
73267;BME280;61495;53.400;7.608;2024-01-15T03:36:36;99520.78;;;1.32;100.00
73267;BME280;61495;53.400;7.608;2024-01-15T03:39:02;99513.84;;;1.31;100.00
73267;BME280;61495;53.400;7.608;2024-01-15T03:41:27;99513.69;;;1.33;100.00
73267;BME280;61495;53.400;7.608;2024-01-15T03:43:53;99494.56;;;1.31;100.00
73267;BME280;61495;53.400;7.608;2024-01-15T03:46:18;99504.94;;;1.32;100.00
73267;BME280;61495;53.400;7.608;2024-01-15T03:48:43;99508.41;;;1.33;100.00
73267;BME280;61495;53.400;7.608;2024-01-15T03:51:09;99495.38;;;1.31;100.00
73267;BME280;61495;53.400;7.608;2024-01-15T03:53:34;99494.13;;;1.27;100.00
73267;BME280;61495;53.400;7.608;2024-01-15T03:56:03;99503.97;;;1.33;100.00
73267;BME280;61495;53.400;7.608;2024-01-15T03:58:28;99507.59;;;1.32;100.00
73267;BME280;61495;53.400;7.608;2024-01-15T04:00:54;99498.69;;;1.33;100.00
73267;BME280;61495;53.400;7.608;2024-01-15T04:03:19;99493.41;;;1.33;100.00
73267;BME280;61495;53.400;7.608;2024-01-15T04:05:44;99493.75;;;1.30;100.00
73267;BME280;61495;53.400;7.608;2024-01-15T04:08:10;99497.84;;;1.33;100.00
73267;BME280;61495;53.400;7.608;2024-01-15T04:10:35;99490.56;;;1.35;100.00
73267;BME280;61495;53.400;7.608;2024-01-15T04:13:01;99508.88;;;1.36;100.00
73267;BME280;61495;53.400;7.608;2024-01-15T04:15:28;99506.88;;;1.38;100.00
73267;BME280;61495;53.400;7.608;2024-01-15T04:17:54;99501.94;;;1.35;100.00
73267;BME280;61495;53.400;7.608;2024-01-15T04:20:19;99503.22;;;1.39;100.00
73267;BME280;61495;53.400;7.608;2024-01-15T04:22:45;99492.69;;;1.39;100.00
73267;BME280;61495;53.400;7.608;2024-01-15T04:25:10;99494.31;;;1.40;100.00
73267;BME280;61495;53.400;7.608;2024-01-15T04:27:36;99501.22;;;1.41;100.00
73267;BME280;61495;53.400;7.608;2024-01-15T04:30:01;99511.78;;;1.41;100.00
73267;BME280;61495;53.400;7.608;2024-01-15T04:32:27;99515.25;;;1.42;100.00
73267;BME280;61495;53.400;7.608;2024-01-15T04:34:53;99500.59;;;1.39;100.00
73267;BME280;61495;53.400;7.608;2024-01-15T04:37:18;99489.38;;;1.37;100.00
73267;BME280;61495;53.400;7.608;2024-01-15T04:39:44;99489.38;;;1.37;100.00
73267;BME280;61495;53.400;7.608;2024-01-15T04:42:09;99484.94;;;1.38;100.00
73267;BME280;61495;53.400;7.608;2024-01-15T04:44:35;99487.78;;;1.36;100.00
73267;BME280;61495;53.400;7.608;2024-01-15T04:47:00;99483.28;;;1.37;100.00
73267;BME280;61495;53.400;7.608;2024-01-15T04:49:26;99474.94;;;1.33;100.00
73267;BME280;61495;53.400;7.608;2024-01-15T04:51:52;99478.84;;;1.37;100.00
73267;BME280;61495;53.400;7.608;2024-01-15T04:54:18;99477.22;;;1.36;100.00
73267;BME280;61495;53.400;7.608;2024-01-15T04:56:44;99486.13;;;1.35;100.00
73267;BME280;61495;53.400;7.608;2024-01-15T04:59:10;99500.97;;;1.36;100.00
73267;BME280;61495;53.400;7.608;2024-01-15T05:01:35;99503.41;;;1.38;100.00
73267;BME280;61495;53.400;7.608;2024-01-15T05:04:01;99491.41;;;1.35;100.00
73267;BME280;61495;53.400;7.608;2024-01-15T05:06:26;99494.03;;;1.35;100.00
73267;BME280;61495;53.400;7.608;2024-01-15T05:08:52;99493.03;;;1.36;100.00
73267;BME280;61495;53.400;7.608;2024-01-15T05:11:17;99490.41;;;1.36;100.00
73267;BME280;61495;53.400;7.608;2024-01-15T05:13:43;99497.31;;;1.37;100.00
73267;BME280;61495;53.400;7.608;2024-01-15T05:16:08;99489.38;;;1.37;100.00
73267;BME280;61495;53.400;7.608;2024-01-15T05:18:33;99501.59;;;1.38;100.00
73267;BME280;61495;53.400;7.608;2024-01-15T05:20:59;99497.97;;;1.39;100.00
73267;BME280;61495;53.400;7.608;2024-01-15T05:23:24;99498.31;;;1.36;100.00
73267;BME280;61495;53.400;7.608;2024-01-15T05:25:55;99479.84;;;1.36;100.00
73267;BME280;61495;53.400;7.608;2024-01-15T05:28:20;99459.47;;;1.30;100.00
73267;BME280;61495;53.400;7.608;2024-01-15T05:30:45;99473.09;;;1.34;100.00
73267;BME280;61495;53.400;7.608;2024-01-15T05:33:10;99465.00;;;1.35;100.00
73267;BME280;61495;53.400;7.608;2024-01-15T05:35:36;99459.75;;;1.35;100.00
73267;BME280;61495;53.400;7.608;2024-01-15T05:38:01;99456.47;;;1.33;100.00
73267;BME280;61495;53.400;7.608;2024-01-15T05:40:28;99454.00;;;1.32;100.00
73267;BME280;61495;53.400;7.608;2024-01-15T05:42:53;99459.28;;;1.32;100.00
73267;BME280;61495;53.400;7.608;2024-01-15T05:45:19;99468.84;;;1.33;100.00
73267;BME280;61495;53.400;7.608;2024-01-15T05:47:44;99460.47;;;1.29;100.00
73267;BME280;61495;53.400;7.608;2024-01-15T05:50:10;99465.75;;;1.29;100.00
73267;BME280;61495;53.400;7.608;2024-01-15T05:52:35;99471.00;;;1.29;100.00
73267;BME280;61495;53.400;7.608;2024-01-15T05:55:01;99470.03;;;1.30;100.00
73267;BME280;61495;53.400;7.608;2024-01-15T05:57:26;99467.75;;;1.27;100.00
73267;BME280;61495;53.400;7.608;2024-01-15T05:59:52;99463.28;;;1.28;100.00
73267;BME280;61495;53.400;7.608;2024-01-15T06:02:17;99470.19;;;1.29;100.00
73267;BME280;61495;53.400;7.608;2024-01-15T06:04:42;99453.38;;;1.30;100.00
73267;BME280;61495;53.400;7.608;2024-01-15T06:07:08;99476.28;;;1.29;100.00
73267;BME280;61495;53.400;7.608;2024-01-15T06:09:33;99472.66;;;1.30;100.00
73267;BME280;61495;53.400;7.608;2024-01-15T06:11:59;99472.66;;;1.30;100.00
73267;BME280;61495;53.400;7.608;2024-01-15T06:14:24;99465.63;;;1.23;100.00
73267;BME280;61495;53.400;7.608;2024-01-15T06:16:49;99481.56;;;1.29;100.00
73267;BME280;61495;53.400;7.608;2024-01-15T06:19:15;99468.94;;;1.25;100.00
73267;BME280;61495;53.400;7.608;2024-01-15T06:21:40;99474.00;;;1.26;100.00
73267;BME280;61495;53.400;7.608;2024-01-15T06:24:05;99470.38;;;1.27;100.00
73267;BME280;61495;53.400;7.608;2024-01-15T06:26:31;99476.66;;;1.26;100.00
73267;BME280;61495;53.400;7.608;2024-01-15T06:28:56;99468.75;;;1.26;100.00
73267;BME280;61495;53.400;7.608;2024-01-15T06:31:21;99461.19;;;1.23;100.00
73267;BME280;61495;53.400;7.608;2024-01-15T06:33:47;99465.13;;;1.27;100.00
73267;BME280;61495;53.400;7.608;2024-01-15T06:36:13;99466.09;;;1.26;100.00
73267;BME280;61495;53.400;7.608;2024-01-15T06:38:39;99466.09;;;1.26;100.00
73267;BME280;61495;53.400;7.608;2024-01-15T06:41:05;99476.03;;;1.24;100.00
73267;BME280;61495;53.400;7.608;2024-01-15T06:43:30;99478.31;;;1.27;100.00
73267;BME280;61495;53.400;7.608;2024-01-15T06:45:55;99470.75;;;1.24;100.00
73267;BME280;61495;53.400;7.608;2024-01-15T06:48:20;99477.63;;;1.25;100.00
73267;BME280;61495;53.400;7.608;2024-01-15T06:50:46;99475.00;;;1.25;100.00
73267;BME280;61495;53.400;7.608;2024-01-15T06:53:11;99472.72;;;1.22;100.00
73267;BME280;61495;53.400;7.608;2024-01-15T06:55:38;99478.66;;;1.24;100.00
73267;BME280;61495;53.400;7.608;2024-01-15T06:58:03;99470.09;;;1.22;100.00
73267;BME280;61495;53.400;7.608;2024-01-15T07:00:29;99465.84;;;1.21;100.00
73267;BME280;61495;53.400;7.608;2024-01-15T07:02:54;99468.47;;;1.21;100.00
73267;BME280;61495;53.400;7.608;2024-01-15T07:05:23;99473.09;;;1.19;100.00
73267;BME280;61495;53.400;7.608;2024-01-15T07:07:49;99473.75;;;1.21;100.00
73267;BME280;61495;53.400;7.608;2024-01-15T07:10:14;99478.72;;;1.16;100.00
73267;BME280;61495;53.400;7.608;2024-01-15T07:12:43;99478.56;;;1.18;100.00
73267;BME280;61495;53.400;7.608;2024-01-15T07:15:09;99472.00;;;1.13;100.00
73267;BME280;61495;53.400;7.608;2024-01-15T07:17:35;99483.19;;;1.16;100.00
73267;BME280;61495;53.400;7.608;2024-01-15T07:20:00;99487.00;;;1.13;100.00
73267;BME280;61495;53.400;7.608;2024-01-15T07:22:26;99483.72;;;1.11;100.00
73267;BME280;61495;53.400;7.608;2024-01-15T07:24:51;99480.09;;;1.12;100.00
73267;BME280;61495;53.400;7.608;2024-01-15T07:27:17;99492.63;;;1.10;100.00
73267;BME280;61495;53.400;7.608;2024-01-15T07:29:42;99487.34;;;1.10;100.00
73267;BME280;61495;53.400;7.608;2024-01-15T07:32:08;99493.28;;;1.12;100.00
73267;BME280;61495;53.400;7.608;2024-01-15T07:34:33;99493.28;;;1.12;100.00
73267;BME280;61495;53.400;7.608;2024-01-15T07:36:59;99490.66;;;1.12;100.00
73267;BME280;61495;53.400;7.608;2024-01-15T07:39:24;99492.25;;;1.13;100.00
73267;BME280;61495;53.400;7.608;2024-01-15T07:41:51;99491.63;;;1.11;100.00
73267;BME280;61495;53.400;7.608;2024-01-15T07:44:17;99494.28;;;1.11;100.00
73267;BME280;61495;53.400;7.608;2024-01-15T07:46:45;99494.00;;;1.06;100.00
73267;BME280;61495;53.400;7.608;2024-01-15T07:49:11;99499.53;;;1.11;100.00
73267;BME280;61495;53.400;7.608;2024-01-15T07:51:36;99490.00;;;1.10;100.00
73267;BME280;61495;53.400;7.608;2024-01-15T07:54:02;99500.19;;;1.13;100.00
73267;BME280;61495;53.400;7.608;2024-01-15T07:56:33;99493.81;;;1.07;100.00
73267;BME280;61495;53.400;7.608;2024-01-15T07:58:58;99505.19;;;1.08;100.00
73267;BME280;61495;53.400;7.608;2024-01-15T08:01:24;99499.91;;;1.08;100.00
73267;BME280;61495;53.400;7.608;2024-01-15T08:03:49;99514.06;;;1.07;100.00
73267;BME280;61495;53.400;7.608;2024-01-15T08:06:14;99538.63;;;1.07;100.00
73267;BME280;61495;53.400;7.608;2024-01-15T08:08:40;99547.91;;;1.03;100.00
73267;BME280;61495;53.400;7.608;2024-01-15T08:11:05;99548.53;;;1.05;100.00
73267;BME280;61495;53.400;7.608;2024-01-15T08:13:31;99553.97;;;1.04;100.00
73267;BME280;61495;53.400;7.608;2024-01-15T08:15:56;99543.63;;;1.02;100.00
73267;BME280;61495;53.400;7.608;2024-01-15T08:18:21;99542.63;;;1.03;100.00
73267;BME280;61495;53.400;7.608;2024-01-15T08:20:47;99542.81;;;1.02;100.00
73267;BME280;61495;53.400;7.608;2024-01-15T08:23:12;99545.28;;;1.03;100.00
73267;BME280;61495;53.400;7.608;2024-01-15T08:25:38;99533.91;;;1.03;100.00
73267;BME280;61495;53.400;7.608;2024-01-15T08:28:03;99531.06;;;1.04;100.00
73267;BME280;61495;53.400;7.608;2024-01-15T08:30:28;99535.09;;;1.00;100.00
73267;BME280;61495;53.400;7.608;2024-01-15T08:32:54;99529.81;;;1.00;100.00
73267;BME280;61495;53.400;7.608;2024-01-15T08:35:20;99514.97;;;0.99;100.00
73267;BME280;61495;53.400;7.608;2024-01-15T08:37:49;99522.06;;;0.99;100.00
73267;BME280;61495;53.400;7.608;2024-01-15T08:40:15;99517.50;;;0.93;100.00
73267;BME280;61495;53.400;7.608;2024-01-15T08:42:41;99531.63;;;1.00;100.00
73267;BME280;61495;53.400;7.608;2024-01-15T08:45:06;99529.34;;;0.97;100.00
73267;BME280;61495;53.400;7.608;2024-01-15T08:47:32;99521.44;;;0.97;100.00
73267;BME280;61495;53.400;7.608;2024-01-15T08:49:57;99514.50;;;0.96;100.00
73267;BME280;61495;53.400;7.608;2024-01-15T08:52:23;99515.19;;;0.98;100.00
73267;BME280;61495;53.400;7.608;2024-01-15T08:54:49;99527.69;;;0.96;100.00
73267;BME280;61495;53.400;7.608;2024-01-15T08:57:14;99522.06;;;0.99;100.00
73267;BME280;61495;53.400;7.608;2024-01-15T08:59:39;99524.06;;;0.97;100.00
73267;BME280;61495;53.400;7.608;2024-01-15T09:02:06;99501.69;;;0.93;100.00
73267;BME280;61495;53.400;7.608;2024-01-15T09:04:32;99513.25;;;0.92;100.00
73267;BME280;61495;53.400;7.608;2024-01-15T09:06:58;99505.34;;;0.92;100.00
73267;BME280;61495;53.400;7.608;2024-01-15T09:09:23;99505.34;;;0.92;100.00
73267;BME280;61495;53.400;7.608;2024-01-15T09:11:49;99506.50;;;0.89;100.00
73267;BME280;61495;53.400;7.608;2024-01-15T09:14:15;99518.22;;;0.87;100.00
73267;BME280;61495;53.400;7.608;2024-01-15T09:16:40;99522.31;;;0.89;100.00
73267;BME280;61495;53.400;7.608;2024-01-15T09:19:06;99529.41;;;0.89;100.00
73267;BME280;61495;53.400;7.608;2024-01-15T09:21:31;99534.03;;;0.87;100.00
73267;BME280;61495;53.400;7.608;2024-01-15T09:23:56;99542.59;;;0.89;100.00
73267;BME280;61495;53.400;7.608;2024-01-15T09:26:22;99542.59;;;0.89;100.00
73267;BME280;61495;53.400;7.608;2024-01-15T09:28:49;99537.69;;;0.86;100.00
73267;BME280;61495;53.400;7.608;2024-01-15T09:31:14;99534.03;;;0.87;100.00
73267;BME280;61495;53.400;7.608;2024-01-15T09:33:40;99524.78;;;0.91;100.00
73267;BME280;61495;53.400;7.608;2024-01-15T09:36:05;99522.16;;;0.91;100.00
73267;BME280;61495;53.400;7.608;2024-01-15T09:38:31;99528.41;;;0.90;100.00
73267;BME280;61495;53.400;7.608;2024-01-15T09:40:57;99523.59;;;0.93;100.00
73267;BME280;61495;53.400;7.608;2024-01-15T09:43:22;99524.59;;;0.92;100.00
73267;BME280;61495;53.400;7.608;2024-01-15T09:45:49;99520.69;;;0.88;100.00
73267;BME280;61495;53.400;7.608;2024-01-15T09:48:15;99523.13;;;0.90;100.00
73267;BME280;61495;53.400;7.608;2024-01-15T09:50:41;99530.06;;;0.91;100.00
73267;BME280;61495;53.400;7.608;2024-01-15T09:53:07;99530.06;;;0.91;100.00
73267;BME280;61495;53.400;7.608;2024-01-15T09:55:36;99531.69;;;0.92;100.00
73267;BME280;61495;53.400;7.608;2024-01-15T09:58:02;99544.88;;;0.92;100.00
73267;BME280;61495;53.400;7.608;2024-01-15T10:00:29;99533.66;;;0.90;100.00
73267;BME280;61495;53.400;7.608;2024-01-15T10:02:55;99536.97;;;0.92;100.00
73267;BME280;61495;53.400;7.608;2024-01-15T10:05:21;99535.31;;;0.91;100.00
73267;BME280;61495;53.400;7.608;2024-01-15T10:07:47;99540.59;;;0.91;100.00
73267;BME280;61495;53.400;7.608;2024-01-15T10:10:15;99528.03;;;0.93;100.00
73267;BME280;61495;53.400;7.608;2024-01-15T10:12:41;99528.03;;;0.93;100.00
73267;BME280;61495;53.400;7.608;2024-01-15T10:15:09;99529.06;;;0.92;100.00
73267;BME280;61495;53.400;7.608;2024-01-15T10:17:37;99531.50;;;0.93;100.00
73267;BME280;61495;53.400;7.608;2024-01-15T10:20:08;99533.31;;;0.93;100.00
73267;BME280;61495;53.400;7.608;2024-01-15T10:22:35;99531.34;;;0.95;100.00
73267;BME280;61495;53.400;7.608;2024-01-15T10:25:10;99530.78;;;0.99;100.00
73267;BME280;61495;53.400;7.608;2024-01-15T10:27:35;99526.34;;;1.00;100.00
73267;BME280;61495;53.400;7.608;2024-01-15T10:30:01;99512.81;;;1.03;100.00
73267;BME280;61495;53.400;7.608;2024-01-15T10:32:27;99517.72;;;1.06;100.00
73267;BME280;61495;53.400;7.608;2024-01-15T10:34:52;99520.63;;;1.11;100.00
73267;BME280;61495;53.400;7.608;2024-01-15T10:37:18;99521.28;;;1.13;100.00
73267;BME280;61495;53.400;7.608;2024-01-15T10:39:46;99528.19;;;1.14;100.00
73267;BME280;61495;53.400;7.608;2024-01-15T10:42:11;99533.13;;;1.17;100.00
73267;BME280;61495;53.400;7.608;2024-01-15T10:44:36;99522.56;;;1.17;100.00
73267;BME280;61495;53.400;7.608;2024-01-15T10:47:02;99518.75;;;1.20;100.00
73267;BME280;61495;53.400;7.608;2024-01-15T10:49:28;99516.31;;;1.18;100.00
73267;BME280;61495;53.400;7.608;2024-01-15T10:51:54;99513.31;;;1.21;100.00
73267;BME280;61495;53.400;7.608;2024-01-15T10:54:20;99517.56;;;1.22;100.00
73267;BME280;61495;53.400;7.608;2024-01-15T10:56:52;99510.66;;;1.21;100.00
73267;BME280;61495;53.400;7.608;2024-01-15T10:59:20;99519.69;;;1.27;100.00
73267;BME280;61495;53.400;7.608;2024-01-15T11:01:46;99506.66;;;1.25;100.00
73267;BME280;61495;53.400;7.608;2024-01-15T11:04:12;99509.94;;;1.27;100.00
73267;BME280;61495;53.400;7.608;2024-01-15T11:06:43;99496.75;;;1.27;100.00
73267;BME280;61495;53.400;7.608;2024-01-15T11:09:09;99498.38;;;1.28;100.00
73267;BME280;61495;53.400;7.608;2024-01-15T11:11:44;99513.31;;;1.36;100.00
73267;BME280;61495;53.400;7.608;2024-01-15T11:14:10;99508.88;;;1.36;100.00
73267;BME280;61495;53.400;7.608;2024-01-15T11:16:54;99514.16;;;1.36;100.00
73267;BME280;61495;53.400;7.608;2024-01-15T11:19:22;99514.94;;;1.37;100.00
73267;BME280;61495;53.400;7.608;2024-01-15T11:21:47;99512.13;;;1.38;100.00
73267;BME280;61495;53.400;7.608;2024-01-15T11:24:37;99519.06;;;1.39;100.00
73267;BME280;61495;53.400;7.608;2024-01-15T11:27:03;99516.44;;;1.39;100.00
73267;BME280;61495;53.400;7.608;2024-01-15T11:29:31;99513.59;;;1.41;100.00
73267;BME280;61495;53.400;7.608;2024-01-15T11:32:10;99513.44;;;1.42;100.00
73267;BME280;61495;53.400;7.608;2024-01-15T11:34:56;99508.50;;;1.39;100.00
73267;BME280;61495;53.400;7.608;2024-01-15T11:37:25;99509.50;;;1.38;100.00
73267;BME280;61495;53.400;7.608;2024-01-15T11:39:54;99504.84;;;1.40;100.00
73267;BME280;61495;53.400;7.608;2024-01-15T11:42:21;99508.16;;;1.42;100.00
73267;BME280;61495;53.400;7.608;2024-01-15T11:44:47;99508.16;;;1.42;100.00
73267;BME280;61495;53.400;7.608;2024-01-15T11:47:13;99502.06;;;1.42;100.00
73267;BME280;61495;53.400;7.608;2024-01-15T11:52:36;99510.22;;;1.47;100.00
73267;BME280;61495;53.400;7.608;2024-01-15T11:57:51;99520.78;;;1.47;100.00
73267;BME280;61495;53.400;7.608;2024-01-15T12:00:17;99519.13;;;1.46;100.00
73267;BME280;61495;53.400;7.608;2024-01-15T12:02:44;99518.34;;;1.45;100.00
73267;BME280;61495;53.400;7.608;2024-01-15T12:05:11;99519.97;;;1.46;100.00
73267;BME280;61495;53.400;7.608;2024-01-15T12:07:42;99521.25;;;1.50;100.00
73267;BME280;61495;53.400;7.608;2024-01-15T12:10:11;99524.16;;;1.55;100.00
73267;BME280;61495;53.400;7.608;2024-01-15T12:15:14;99520.69;;;1.69;100.00
73267;BME280;61495;53.400;7.608;2024-01-15T12:17:40;99531.19;;;1.78;100.00
73267;BME280;61495;53.400;7.608;2024-01-15T12:20:05;99532.44;;;1.82;100.00
73267;BME280;61495;53.400;7.608;2024-01-15T12:22:31;99544.44;;;1.84;100.00
73267;BME280;61495;53.400;7.608;2024-01-15T12:24:56;99546.66;;;1.81;100.00
73267;BME280;61495;53.400;7.608;2024-01-15T12:27:23;99556.75;;;1.77;100.00
73267;BME280;61495;53.400;7.608;2024-01-15T12:29:49;99565.66;;;1.76;100.00
73267;BME280;61495;53.400;7.608;2024-01-15T12:32:14;99565.50;;;1.78;100.00
73267;BME280;61495;53.400;7.608;2024-01-15T12:34:39;99558.09;;;1.73;100.00
73267;BME280;61495;53.400;7.608;2024-01-15T12:37:07;99560.56;;;1.75;100.00
73267;BME280;61495;53.400;7.608;2024-01-15T12:39:35;99559.75;;;1.74;100.00
73267;BME280;61495;53.400;7.608;2024-01-15T12:42:02;99560.75;;;1.73;100.00
73267;BME280;61495;53.400;7.608;2024-01-15T12:44:28;99560.13;;;1.71;100.00
73267;BME280;61495;53.400;7.608;2024-01-15T12:46:53;99569.03;;;1.70;100.00
73267;BME280;61495;53.400;7.608;2024-01-15T12:49:19;99572.84;;;1.67;100.00
73267;BME280;61495;53.400;7.608;2024-01-15T12:51:54;99570.22;;;1.67;100.00
73267;BME280;61495;53.400;7.608;2024-01-15T12:54:22;99578.13;;;1.67;100.00
73267;BME280;61495;53.400;7.608;2024-01-15T12:56:49;99572.22;;;1.65;100.00
73267;BME280;61495;53.400;7.608;2024-01-15T12:59:14;99585.41;;;1.65;100.00
73267;BME280;61495;53.400;7.608;2024-01-15T13:01:39;99585.59;;;1.64;100.00